Time;durP1;ratioP1;P1;durP2;ratioP2;P2;SDS_P1;SDS_P2;PMS_P1;PMS_P2;Temp;Humidity;BMP_temperature;BMP_pressure;BME280_temperature;BME280_humidity;BME280_pressure;Samples;Min_cycle;Max_cycle;Signal;HPM_P1;HPM_P2
2021/08/24 00:02:17;;;;;;;18.70;17.60;;;;;;;;;;5055412;28;20447;-88
2021/08/24 00:04:44;;;;;;;18.67;17.67;;;;;;;;;;5055523;28;20489;-88
2021/08/24 00:07:11;;;;;;;18.10;17.20;;;;;;;;;;5055378;28;20409;-88
2021/08/24 00:09:39;;;;;;;17.90;17.00;;;;;;;;;;5055352;28;20445;-88
2021/08/24 00:12:07;;;;;;;18.10;17.00;;;;;;;;;;5055311;28;20407;-88
2021/08/24 00:14:35;;;;;;;18.43;17.53;;;;;;;;;;5054958;28;20447;-88
2021/08/24 00:17:04;;;;;;;18.07;17.17;;;;;;;;;;5037816;28;20502;-89
2021/08/24 00:19:31;;;;;;;18.80;17.70;;;;;;;;;;5055137;28;20417;-88
2021/08/24 00:21:58;;;;;;;18.73;17.47;;;;;;;;;;5055554;28;20460;-89
2021/08/24 00:24:26;;;;;;;18.40;17.50;;;;;;;;;;5055161;28;20489;-88
2021/08/24 00:26:54;;;;;;;18.93;17.60;;;;;;;;;;5017859;28;20447;-87
2021/08/24 00:29:21;;;;;;;18.20;17.30;;;;;;;;;;5035253;28;20449;-88
2021/08/24 00:31:49;;;;;;;18.20;17.30;;;;;;;;;;5035331;28;20451;-87
2021/08/24 00:34:17;;;;;;;17.60;16.80;;;;;;;;;;5035101;28;20411;-88
2021/08/24 00:36:45;;;;;;;19.30;18.20;;;;;;;;;;5034886;28;20435;-88
2021/08/24 00:39:12;;;;;;;19.40;18.20;;;;;;;;;;5035036;28;20544;-88
2021/08/24 00:41:40;;;;;;;18.33;17.43;;;;;;;;;;5034435;28;20434;-89
2021/08/24 00:44:07;;;;;;;18.57;17.67;;;;;;;;;;5034819;28;20471;-88
2021/08/24 00:46:37;;;;;;;17.60;16.80;;;;;;;;;;5035020;28;20429;-88
2021/08/24 00:49:06;;;;;;;18.37;17.37;;;;;;;;;;5034996;28;20507;-88
2021/08/24 00:51:38;;;;;;;18.10;17.20;;;;;;;;;;5034868;28;20451;-87
2021/08/24 00:54:07;;;;;;;18.77;17.60;;;;;;;;;;5035297;28;20825;-88
2021/08/24 00:56:34;;;;;;;18.60;17.60;;;;;;;;;;5034511;28;20439;-88
2021/08/24 00:59:02;;;;;;;18.67;17.67;;;;;;;;;;5033970;28;20447;-88
2021/08/24 01:01:30;;;;;;;18.47;17.47;;;;;;;;;;5034637;28;20418;-88
2021/08/24 01:03:57;;;;;;;18.13;17.27;;;;;;;;;;5034857;28;20411;-88
2021/08/24 01:06:32;;;;;;;18.73;17.40;;;;;;;;;;5034960;28;20906;-87
2021/08/24 01:09:05;;;;;;;18.60;17.70;;;;;;;;;;5034318;28;20538;-88
2021/08/24 01:11:37;;;;;;;19.10;18.10;;;;;;;;;;5034575;28;20463;-87
2021/08/24 01:14:09;;;;;;;18.80;17.80;;;;;;;;;;5034572;28;20746;-88
2021/08/24 01:16:40;;;;;;;18.50;17.50;;;;;;;;;;5017320;28;20448;-87
2021/08/24 01:19:17;;;;;;;18.07;17.17;;;;;;;;;;5034539;28;20907;-88
2021/08/24 01:21:55;;;;;;;19.60;18.60;;;;;;;;;;5034611;28;20438;-88
2021/08/24 01:24:26;;;;;;;19.20;18.20;;;;;;;;;;5034546;28;20484;-88
2021/08/24 01:26:57;;;;;;;18.90;17.90;;;;;;;;;;5017115;28;21025;-88
2021/08/24 01:29:43;;;;;;;18.53;17.63;;;;;;;;;;5034063;28;20944;-88
2021/08/24 01:32:18;;;;;;;19.30;18.33;;;;;;;;;;5034170;28;20418;-88
2021/08/24 01:35:06;;;;;;;18.87;17.87;;;;;;;;;;5034022;28;20425;-88
2021/08/24 01:37:36;;;;;;;18.70;17.80;;;;;;;;;;5034111;28;20430;-88
2021/08/24 01:40:07;;;;;;;18.10;17.20;;;;;;;;;;5034213;28;20410;-88
2021/08/24 01:42:34;;;;;;;18.73;17.73;;;;;;;;;;5034237;28;20407;-88
2021/08/24 01:45:06;;;;;;;18.50;17.60;;;;;;;;;;5034286;28;20810;-88
2021/08/24 01:47:40;;;;;;;18.30;17.40;;;;;;;;;;5034063;28;20461;-88
2021/08/24 01:50:10;;;;;;;18.77;17.87;;;;;;;;;;5034284;28;20418;-88
2021/08/24 01:52:41;;;;;;;19.27;18.17;;;;;;;;;;5016535;28;20422;-88
2021/08/24 01:55:12;;;;;;;18.27;17.37;;;;;;;;;;5034058;28;20460;-87
2021/08/24 01:57:42;;;;;;;18.90;17.80;;;;;;;;;;5033824;28;20505;-88
2021/08/24 02:00:11;;;;;;;18.90;17.90;;;;;;;;;;5034142;28;20418;-88
2021/08/24 02:02:40;;;;;;;19.63;18.40;;;;;;;;;;5033966;28;20455;-87
2021/08/24 02:05:10;;;;;;;19.17;18.07;;;;;;;;;;5033520;28;20458;-88
2021/08/24 02:07:40;;;;;;;18.30;17.40;;;;;;;;;;5034205;28;20451;-88
2021/08/24 02:10:10;;;;;;;19.07;18.13;;;;;;;;;;5033707;28;20483;-88
2021/08/24 02:12:40;;;;;;;18.60;17.60;;;;;;;;;;5033691;28;20418;-88
2021/08/24 02:15:08;;;;;;;19.17;18.07;;;;;;;;;;5017357;28;20447;-87
2021/08/24 02:17:37;;;;;;;20.03;18.93;;;;;;;;;;5033886;28;20428;-88
2021/08/24 02:20:08;;;;;;;19.10;18.10;;;;;;;;;;5034830;28;20458;-88
2021/08/24 02:22:37;;;;;;;19.10;18.03;;;;;;;;;;5037773;28;20765;-88
2021/08/24 02:25:09;;;;;;;19.40;18.40;;;;;;;;;;5042491;28;20464;-89
2021/08/24 02:27:39;;;;;;;18.90;17.90;;;;;;;;;;5057416;28;20922;-88
2021/08/24 02:30:07;;;;;;;19.50;18.03;;;;;;;;;;5057355;28;20450;-88
2021/08/24 02:32:36;;;;;;;19.40;18.30;;;;;;;;;;5057521;28;20420;-88
2021/08/24 02:35:07;;;;;;;18.87;17.97;;;;;;;;;;5039727;28;20469;-88
2021/08/24 02:37:38;;;;;;;19.77;18.50;;;;;;;;;;5057442;28;20467;-88
2021/08/24 02:40:13;;;;;;;19.10;18.10;;;;;;;;;;5057312;28;20435;-88
2021/08/24 02:42:47;;;;;;;18.67;17.60;;;;;;;;;;5057309;28;20457;-88
2021/08/24 02:45:16;;;;;;;19.50;18.40;;;;;;;;;;5056968;28;20494;-88
2021/08/24 02:47:44;;;;;;;19.20;18.00;;;;;;;;;;5057372;28;20438;-88
2021/08/24 02:50:12;;;;;;;19.57;18.47;;;;;;;;;;5057114;28;20936;-88
2021/08/24 02:52:40;;;;;;;19.47;18.37;;;;;;;;;;5057087;28;20435;-88
2021/08/24 02:55:10;;;;;;;19.30;18.23;;;;;;;;;;5057668;28;20461;-87
2021/08/24 02:57:37;;;;;;;19.70;18.60;;;;;;;;;;5039373;28;20451;-88
2021/08/24 03:00:05;;;;;;;19.70;18.60;;;;;;;;;;5056661;28;20420;-88
2021/08/24 03:02:33;;;;;;;19.53;18.53;;;;;;;;;;5056961;28;20405;-88
2021/08/24 03:05:01;;;;;;;18.50;17.60;;;;;;;;;;5056880;28;20478;-88
2021/08/24 03:07:30;;;;;;;19.70;18.70;;;;;;;;;;5039021;28;20791;-88
2021/08/24 03:09:58;;;;;;;18.87;17.97;;;;;;;;;;5057020;28;20887;-88
2021/08/24 03:12:32;;;;;;;20.10;19.10;;;;;;;;;;5056530;28;20438;-88
2021/08/24 03:15:01;;;;;;;19.30;18.10;;;;;;;;;;5056688;28;20413;-88
2021/08/24 03:17:31;;;;;;;18.70;17.70;;;;;;;;;;5056917;28;20966;-88
2021/08/24 03:20:01;;;;;;;18.73;17.63;;;;;;;;;;5056318;28;20416;-88
2021/08/24 03:22:29;;;;;;;19.60;18.30;;;;;;;;;;5056843;28;20406;-88
2021/08/24 03:24:57;;;;;;;18.37;17.37;;;;;;;;;;5056278;28;20469;-88
2021/08/24 03:27:26;;;;;;;18.23;17.37;;;;;;;;;;5056639;28;20409;-88
2021/08/24 03:29:59;;;;;;;18.33;17.30;;;;;;;;;;5056451;28;20441;-88
2021/08/24 03:32:26;;;;;;;18.70;17.70;;;;;;;;;;5056348;28;20435;-88
2021/08/24 03:34:54;;;;;;;19.20;17.80;;;;;;;;;;5055998;28;20435;-86
2021/08/24 03:37:21;;;;;;;17.93;16.93;;;;;;;;;;5056345;28;20431;-89
2021/08/24 03:39:49;;;;;;;19.43;18.43;;;;;;;;;;5056346;28;20416;-88
2021/08/24 03:42:16;;;;;;;19.33;17.37;;;;;;;;;;5055906;28;20439;-88
2021/08/24 03:44:46;;;;;;;18.50;17.57;;;;;;;;;;5055720;28;20435;-88
2021/08/24 03:47:15;;;;;;;18.70;17.67;;;;;;;;;;5038626;28;20443;-87
2021/08/24 03:49:42;;;;;;;19.07;17.87;;;;;;;;;;5056088;28;20416;-88
2021/08/24 03:52:10;;;;;;;19.70;18.50;;;;;;;;;;5056715;28;20819;-88
2021/08/24 03:54:37;;;;;;;19.03;18.00;;;;;;;;;;5056090;28;20421;-89
2021/08/24 03:57:05;;;;;;;19.10;18.10;;;;;;;;;;5038658;28;20438;-88
2021/08/24 03:59:32;;;;;;;18.80;17.90;;;;;;;;;;5055645;28;20454;-88
2021/08/24 04:02:00;;;;;;;20.60;19.23;;;;;;;;;;5055850;28;20424;-88
2021/08/24 04:04:29;;;;;;;19.43;18.33;;;;;;;;;;5055557;28;20424;-88
2021/08/24 04:06:56;;;;;;;19.63;18.43;;;;;;;;;;5055774;28;20486;-88
2021/08/24 04:09:24;;;;;;;19.13;18.10;;;;;;;;;;5055903;28;20764;-88
2021/08/24 04:11:51;;;;;;;20.47;19.30;;;;;;;;;;5055726;28;20421;-88
2021/08/24 04:14:18;;;;;;;20.63;19.43;;;;;;;;;;5055715;28;20816;-87
2021/08/24 04:16:47;;;;;;;20.80;19.53;;;;;;;;;;5055190;28;20421;-88
2021/08/24 04:19:14;;;;;;;21.30;19.80;;;;;;;;;;5055824;28;20435;-88
2021/08/24 04:21:44;;;;;;;21.57;20.07;;;;;;;;;;5056068;28;20450;-88
2021/08/24 04:24:11;;;;;;;21.83;20.23;;;;;;;;;;5055261;28;20409;-88
2021/08/24 04:26:39;;;;;;;20.37;19.13;;;;;;;;;;5055203;28;20484;-88
2021/08/24 04:29:07;;;;;;;20.87;19.77;;;;;;;;;;5054983;28;20502;-87
2021/08/24 04:31:35;;;;;;;20.90;19.73;;;;;;;;;;5055078;28;20454;-87
2021/08/24 04:34:03;;;;;;;21.00;19.83;;;;;;;;;;5055082;28;20428;-89
2021/08/24 04:36:30;;;;;;;19.97;18.70;;;;;;;;;;5055016;28;20416;-87
2021/08/24 04:38:59;;;;;;;21.20;19.80;;;;;;;;;;5054945;28;20413;-87
2021/08/24 04:41:27;;;;;;;21.47;19.93;;;;;;;;;;5055108;28;20398;-87
2021/08/24 04:43:54;;;;;;;21.37;19.97;;;;;;;;;;5054247;28;20429;-88
2021/08/24 04:46:22;;;;;;;20.03;18.97;;;;;;;;;;5054585;28;20479;-88
2021/08/24 04:48:49;;;;;;;20.53;19.17;;;;;;;;;;5054710;28;20458;-88
2021/08/24 04:51:17;;;;;;;20.73;19.60;;;;;;;;;;5054545;28;20911;-83
2021/08/24 04:53:44;;;;;;;21.13;19.93;;;;;;;;;;5054019;28;20424;-83
2021/08/24 04:56:13;;;;;;;20.30;19.20;;;;;;;;;;5054170;28;20413;-83
2021/08/24 04:58:40;;;;;;;21.67;20.27;;;;;;;;;;5054723;28;20435;-87
2021/08/24 05:01:07;;;;;;;22.53;21.00;;;;;;;;;;5054510;28;21042;-87
2021/08/24 05:03:35;;;;;;;21.90;20.60;;;;;;;;;;5054136;28;20414;-83
2021/08/24 05:06:02;;;;;;;22.20;20.53;;;;;;;;;;5054214;28;21010;-83
2021/08/24 05:08:30;;;;;;;21.40;20.20;;;;;;;;;;5054051;28;20477;-84
2021/08/24 05:10:57;;;;;;;22.50;21.00;;;;;;;;;;5053879;28;20438;-83
2021/08/24 05:13:26;;;;;;;22.03;20.63;;;;;;;;;;5054113;28;20443;-83
2021/08/24 05:15:53;;;;;;;21.90;20.70;;;;;;;;;;5053947;28;20420;-84
2021/08/24 05:18:21;;;;;;;21.50;20.20;;;;;;;;;;5054152;28;20491;-83
2021/08/24 05:20:48;;;;;;;21.43;20.17;;;;;;;;;;5054182;28;20413;-83
2021/08/24 05:23:15;;;;;;;21.07;19.80;;;;;;;;;;5054101;28;20465;-84
2021/08/24 05:25:43;;;;;;;21.10;19.80;;;;;;;;;;5053853;28;20479;-83
2021/08/24 05:28:10;;;;;;;21.00;19.90;;;;;;;;;;5054143;28;20418;-83
2021/08/24 05:30:39;;;;;;;21.00;19.90;;;;;;;;;;5053797;28;20973;-83
2021/08/24 05:33:06;;;;;;;21.60;20.30;;;;;;;;;;5054162;28;20418;-84
2021/08/24 05:35:34;;;;;;;22.77;21.27;;;;;;;;;;5053826;28;20790;-83
2021/08/24 05:38:01;;;;;;;20.67;19.47;;;;;;;;;;5053691;28;20424;-83
2021/08/24 05:40:28;;;;;;;20.90;19.77;;;;;;;;;;5053820;28;20458;-83
2021/08/24 05:42:56;;;;;;;20.87;19.70;;;;;;;;;;5053658;28;20477;-84
2021/08/24 05:45:23;;;;;;;21.00;19.80;;;;;;;;;;5053727;28;20435;-84
2021/08/24 05:47:52;;;;;;;20.57;19.47;;;;;;;;;;5054622;28;20454;-83
2021/08/24 05:50:19;;;;;;;20.67;19.47;;;;;;;;;;5053449;28;20417;-83
2021/08/24 05:52:47;;;;;;;21.20;19.90;;;;;;;;;;5035949;28;20425;-84
2021/08/24 05:55:14;;;;;;;21.63;20.17;;;;;;;;;;5054687;28;20416;-83
2021/08/24 05:57:41;;;;;;;20.30;19.13;;;;;;;;;;5057942;28;20442;-84
2021/08/24 06:00:09;;;;;;;21.97;20.77;;;;;;;;;;5039925;28;20839;-84
2021/08/24 06:02:37;;;;;;;20.00;18.90;;;;;;;;;;5057457;28;20903;-83
2021/08/24 06:05:07;;;;;;;20.70;19.40;;;;;;;;;;5057735;28;20416;-83
2021/08/24 06:07:35;;;;;;;20.53;19.43;;;;;;;;;;5057364;28;20453;-83
2021/08/24 06:10:02;;;;;;;20.03;18.93;;;;;;;;;;5057430;28;20409;-83
2021/08/24 06:12:30;;;;;;;19.83;18.83;;;;;;;;;;5039488;28;20417;-83
2021/08/24 06:14:57;;;;;;;19.33;18.30;;;;;;;;;;5057138;28;20409;-83
2021/08/24 06:17:25;;;;;;;19.30;18.30;;;;;;;;;;5057496;28;20438;-83
2021/08/24 06:19:52;;;;;;;20.00;19.00;;;;;;;;;;5057300;28;20814;-84
2021/08/24 06:22:21;;;;;;;20.20;19.10;;;;;;;;;;5057618;28;20897;-83
2021/08/24 06:24:48;;;;;;;19.40;18.40;;;;;;;;;;5057135;28;20425;-83
2021/08/24 06:27:16;;;;;;;19.67;18.60;;;;;;;;;;5056877;28;20465;-83
2021/08/24 06:29:43;;;;;;;20.80;18.87;;;;;;;;;;5056672;28;20455;-84
2021/08/24 06:32:17;;;;;;;20.27;19.03;;;;;;;;;;5057230;28;20420;-83
2021/08/24 06:34:45;;;;;;;19.67;18.57;;;;;;;;;;5056743;28;20406;-83
2021/08/24 06:37:12;;;;;;;20.27;19.27;;;;;;;;;;5056701;28;20422;-83
2021/08/24 06:39:41;;;;;;;19.10;18.10;;;;;;;;;;5056656;28;20436;-83
2021/08/24 06:42:08;;;;;;;20.20;19.00;;;;;;;;;;5056757;28;20413;-83
2021/08/24 06:44:36;;;;;;;19.20;18.20;;;;;;;;;;5056559;28;20426;-83
2021/08/24 06:47:03;;;;;;;19.63;18.60;;;;;;;;;;5056371;28;20478;-83
2021/08/24 06:49:31;;;;;;;19.60;18.40;;;;;;;;;;5038991;28;20787;-83
2021/08/24 06:51:59;;;;;;;20.43;19.27;;;;;;;;;;5039187;28;20420;-83
2021/08/24 06:54:26;;;;;;;20.43;19.23;;;;;;;;;;5056677;28;20462;-83
2021/08/24 06:56:57;;;;;;;19.13;18.03;;;;;;;;;;5056686;28;20414;-83
2021/08/24 06:59:24;;;;;;;19.90;18.83;;;;;;;;;;5038819;28;20450;-83
2021/08/24 07:01:52;;;;;;;19.47;18.47;;;;;;;;;;5056719;28;20418;-83
2021/08/24 07:04:20;;;;;;;20.37;19.27;;;;;;;;;;5038672;28;20449;-83
2021/08/24 07:06:50;;;;;;;18.77;17.87;;;;;;;;;;5055844;28;20536;-83
2021/08/24 07:09:18;;;;;;;19.77;18.73;;;;;;;;;;5056171;28;20872;-83
2021/08/24 07:11:45;;;;;;;19.83;18.63;;;;;;;;;;5056403;28;20445;-83
2021/08/24 07:14:14;;;;;;;20.13;18.93;;;;;;;;;;5055995;28;20426;-83
2021/08/24 07:16:44;;;;;;;19.83;18.53;;;;;;;;;;5056440;28;20447;-85
2021/08/24 07:19:11;;;;;;;19.37;18.07;;;;;;;;;;5056302;28;20424;-83
2021/08/24 07:21:39;;;;;;;18.87;17.83;;;;;;;;;;5056171;28;20788;-84
2021/08/24 07:24:06;;;;;;;18.33;17.23;;;;;;;;;;5056210;28;20414;-84
2021/08/24 07:26:34;;;;;;;19.33;18.30;;;;;;;;;;5055844;28;20482;-83
2021/08/24 07:29:01;;;;;;;19.13;18.13;;;;;;;;;;5055408;28;20453;-83
2021/08/24 07:31:33;;;;;;;18.43;17.50;;;;;;;;;;5055737;28;20416;-83
2021/08/24 07:34:00;;;;;;;18.80;17.90;;;;;;;;;;5055769;28;20455;-84
2021/08/24 07:36:28;;;;;;;19.03;17.93;;;;;;;;;;5038163;28;20907;-83
2021/08/24 07:38:55;;;;;;;19.33;18.33;;;;;;;;;;5056512;28;20428;-89
2021/08/24 07:41:22;;;;;;;19.87;18.87;;;;;;;;;;5056186;28;20430;-89
2021/08/24 07:43:50;;;;;;;18.63;17.53;;;;;;;;;;5055789;28;20449;-88
2021/08/24 07:46:17;;;;;;;19.23;18.03;;;;;;;;;;5055978;28;20460;-84
2021/08/24 07:48:46;;;;;;;19.33;18.33;;;;;;;;;;5055734;28;20446;-84
2021/08/24 07:51:13;;;;;;;18.87;17.93;;;;;;;;;;5055377;28;20897;-84
2021/08/24 07:53:41;;;;;;;19.10;17.83;;;;;;;;;;5038199;28;20921;-84
2021/08/24 07:56:09;;;;;;;18.77;17.53;;;;;;;;;;5055694;28;20439;-83
2021/08/24 07:58:37;;;;;;;17.83;16.83;;;;;;;;;;5055565;28;20462;-81
2021/08/24 08:01:04;;;;;;;19.57;18.47;;;;;;;;;;5055405;28;20420;-83
2021/08/24 08:03:32;;;;;;;18.73;17.83;;;;;;;;;;5055408;28;20450;-83
2021/08/24 08:06:01;;;;;;;18.53;17.63;;;;;;;;;;5055197;28;20434;-83
2021/08/24 08:08:29;;;;;;;19.33;18.33;;;;;;;;;;5055626;28;20414;-83
2021/08/24 08:10:57;;;;;;;19.73;18.33;;;;;;;;;;5055830;28;20411;-84
2021/08/24 08:13:25;;;;;;;18.53;17.53;;;;;;;;;;5057025;28;20553;-85
2021/08/24 08:15:52;;;;;;;19.30;18.20;;;;;;;;;;5055135;28;20432;-85
2021/08/24 08:18:20;;;;;;;18.70;17.60;;;;;;;;;;5054043;28;20421;-85
2021/08/24 08:20:48;;;;;;;19.27;18.37;;;;;;;;;;5037618;28;20506;-86
2021/08/24 08:23:17;;;;;;;19.30;18.30;;;;;;;;;;5055087;28;20444;-86
2021/08/24 08:25:45;;;;;;;18.80;17.80;;;;;;;;;;5054904;28;20451;-85
2021/08/24 08:28:13;;;;;;;18.80;17.70;;;;;;;;;;5036759;28;20496;-86
2021/08/24 08:30:43;;;;;;;19.37;18.00;;;;;;;;;;5053528;28;20436;-84
2021/08/24 08:33:10;;;;;;;18.60;17.60;;;;;;;;;;5055244;28;20435;-85
2021/08/24 08:35:37;;;;;;;20.03;19.03;;;;;;;;;;5055642;28;20412;-85
2021/08/24 08:38:05;;;;;;;19.20;18.10;;;;;;;;;;5054991;28;20549;-85
2021/08/24 08:40:37;;;;;;;18.63;17.63;;;;;;;;;;5054950;28;20440;-84
2021/08/24 08:43:09;;;;;;;18.93;17.93;;;;;;;;;;5054983;28;20441;-88
2021/08/24 08:45:40;;;;;;;18.73;17.73;;;;;;;;;;5055677;28;20447;-84
2021/08/24 08:48:16;;;;;;;19.33;18.33;;;;;;;;;;5054496;28;20473;-83
2021/08/24 08:50:46;;;;;;;19.40;18.30;;;;;;;;;;5054451;28;20788;-83
2021/08/24 08:53:20;;;;;;;19.30;18.20;;;;;;;;;;5054218;28;20457;-81
2021/08/24 08:55:51;;;;;;;19.40;18.30;;;;;;;;;;5054368;28;20428;-82
2021/08/24 08:58:34;;;;;;;19.40;18.30;;;;;;;;;;5054308;28;20448;-82
2021/08/24 09:01:03;;;;;;;19.43;18.13;;;;;;;;;;5054221;28;20935;-83
2021/08/24 09:03:38;;;;;;;19.37;18.07;;;;;;;;;;5053994;28;20411;-83
2021/08/24 09:06:05;;;;;;;20.03;18.90;;;;;;;;;;5054278;28;20419;-83
2021/08/24 09:08:35;;;;;;;19.23;18.13;;;;;;;;;;5053845;28;20454;-80
2021/08/24 09:11:05;;;;;;;19.77;18.67;;;;;;;;;;5054061;28;20411;-84
2021/08/24 09:13:34;;;;;;;19.40;18.30;;;;;;;;;;5036408;28;20426;-83
2021/08/24 09:16:06;;;;;;;19.90;18.63;;;;;;;;;;5054155;28;20447;-85
2021/08/24 09:18:41;;;;;;;19.50;18.40;;;;;;;;;;5054351;28;20423;-83
2021/08/24 09:21:10;;;;;;;19.40;18.30;;;;;;;;;;5053507;28;20461;-87
2021/08/24 09:23:37;;;;;;;19.00;18.00;;;;;;;;;;5053917;28;20417;-83
2021/08/24 09:26:20;;;;;;;19.50;17.80;;;;;;;;;;5053824;28;20462;-83
2021/08/24 09:28:49;;;;;;;19.43;18.33;;;;;;;;;;5053340;28;20466;-82
2021/08/24 09:31:19;;;;;;;19.23;18.13;;;;;;;;;;5053758;28;20995;-84
2021/08/24 09:33:47;;;;;;;19.40;18.30;;;;;;;;;;5053811;28;20484;-83
2021/08/24 09:36:14;;;;;;;20.50;19.30;;;;;;;;;;5053223;28;20424;-83
2021/08/24 09:38:49;;;;;;;21.40;19.60;;;;;;;;;;5053774;28;20413;-83
2021/08/24 09:41:23;;;;;;;20.00;18.90;;;;;;;;;;5053438;28;20421;-83
2021/08/24 09:43:54;;;;;;;21.10;20.00;;;;;;;;;;5035730;28;20484;-81
2021/08/24 09:46:27;;;;;;;20.93;19.83;;;;;;;;;;5053440;28;20472;-83
2021/08/24 09:48:55;;;;;;;21.37;20.07;;;;;;;;;;5053723;28;20462;-81
2021/08/24 09:51:34;;;;;;;22.30;20.80;;;;;;;;;;5053429;28;20451;-83
2021/08/24 09:54:02;;;;;;;20.00;18.90;;;;;;;;;;5053783;28;20514;-82
2021/08/24 09:56:34;;;;;;;20.43;19.33;;;;;;;;;;5053384;28;20449;-83
2021/08/24 09:59:03;;;;;;;20.87;19.67;;;;;;;;;;5053404;28;20419;-83
2021/08/24 10:01:45;;;;;;;21.03;19.83;;;;;;;;;;5052552;28;20412;-83
2021/08/24 10:04:12;;;;;;;21.30;19.90;;;;;;;;;;5052858;28;20417;-83
2021/08/24 10:06:41;;;;;;;21.37;19.97;;;;;;;;;;5053401;28;20418;-83
2021/08/24 10:09:18;;;;;;;20.80;19.60;;;;;;;;;;5035920;28;20422;-82
2021/08/24 10:11:45;;;;;;;20.30;19.20;;;;;;;;;;5039618;28;20429;-82
2021/08/24 10:14:18;;;;;;;20.70;19.50;;;;;;;;;;5013691;28;20451;-84
2021/08/24 10:16:46;;;;;;;20.83;19.63;;;;;;;;;;5013874;28;20808;-84
2021/08/24 10:19:19;;;;;;;21.60;20.30;;;;;;;;;;5013071;28;20437;-81
2021/08/24 10:21:54;;;;;;;20.47;19.13;;;;;;;;;;5013330;28;20906;-84
2021/08/24 10:24:24;;;;;;;20.83;19.73;;;;;;;;;;5012736;28;20432;-84
2021/08/24 10:26:54;;;;;;;21.60;20.30;;;;;;;;;;5032507;28;20452;-82
2021/08/24 10:29:25;;;;;;;21.53;20.30;;;;;;;;;;5033414;28;20442;-85
2021/08/24 10:31:55;;;;;;;22.10;20.80;;;;;;;;;;5033604;28;20499;-85
2021/08/24 10:34:29;;;;;;;21.47;19.97;;;;;;;;;;5033641;28;20447;-84
2021/08/24 10:37:13;;;;;;;21.57;20.27;;;;;;;;;;5033519;28;20811;-84
2021/08/24 10:39:40;;;;;;;22.43;21.13;;;;;;;;;;5033127;28;20933;-84
2021/08/24 10:42:09;;;;;;;21.80;20.50;;;;;;;;;;5035720;28;20937;-85
2021/08/24 10:44:56;;;;;;;21.33;20.13;;;;;;;;;;5037415;28;20444;-86
2021/08/24 10:47:25;;;;;;;21.37;20.17;;;;;;;;;;5057125;28;20446;-84
2021/08/24 10:49:54;;;;;;;21.70;20.50;;;;;;;;;;5057099;28;20776;-85
2021/08/24 10:52:26;;;;;;;21.93;20.70;;;;;;;;;;5056751;28;20415;-84
2021/08/24 10:54:59;;;;;;;22.10;20.90;;;;;;;;;;5056909;28;20534;-84
2021/08/24 10:57:36;;;;;;;21.27;19.97;;;;;;;;;;5056440;28;20443;-85
2021/08/24 11:00:11;;;;;;;22.80;21.40;;;;;;;;;;5056758;28;20449;-85
2021/08/24 11:02:56;;;;;;;22.40;21.07;;;;;;;;;;5056863;28;20789;-85
2021/08/24 11:05:31;;;;;;;21.47;20.17;;;;;;;;;;5056222;28;20907;-83
2021/08/24 11:08:06;;;;;;;22.17;20.97;;;;;;;;;;5056593;28;20489;-85
2021/08/24 11:10:36;;;;;;;22.60;21.20;;;;;;;;;;5056537;28;20452;-85
2021/08/24 11:13:08;;;;;;;21.43;20.23;;;;;;;;;;5056576;28;20439;-82
2021/08/24 11:15:42;;;;;;;22.57;21.17;;;;;;;;;;5055314;28;20450;-84
2021/08/24 11:18:15;;;;;;;21.30;20.07;;;;;;;;;;5055752;28;20432;-83
2021/08/24 11:20:46;;;;;;;21.63;20.23;;;;;;;;;;5055805;28;20437;-83
2021/08/24 11:23:19;;;;;;;20.93;19.83;;;;;;;;;;5054114;28;20431;-84
2021/08/24 11:25:48;;;;;;;22.07;20.77;;;;;;;;;;5056466;28;20453;-83
2021/08/24 11:28:21;;;;;;;21.90;20.67;;;;;;;;;;5055006;28;20495;-82
2021/08/24 11:30:53;;;;;;;21.90;20.70;;;;;;;;;;5056379;28;20451;-84
2021/08/24 11:33:24;;;;;;;21.50;20.20;;;;;;;;;;5055876;28;20884;-84
2021/08/24 11:35:54;;;;;;;21.23;19.90;;;;;;;;;;5055978;28;20436;-83
2021/08/24 11:38:23;;;;;;;22.00;20.60;;;;;;;;;;5055409;28;20767;-83
2021/08/24 11:40:55;;;;;;;21.83;20.53;;;;;;;;;;5055366;28;20418;-81
2021/08/24 11:43:24;;;;;;;22.17;20.77;;;;;;;;;;5036529;28;20479;-83
2021/08/24 11:45:54;;;;;;;22.57;21.17;;;;;;;;;;5035305;28;20448;-81
2021/08/24 11:48:24;;;;;;;22.93;21.50;;;;;;;;;;5035696;28;20511;-83
2021/08/24 11:50:53;;;;;;;21.57;20.37;;;;;;;;;;5035732;28;20441;-82
2021/08/24 11:53:24;;;;;;;21.20;20.00;;;;;;;;;;5035399;28;20421;-83
2021/08/24 11:55:56;;;;;;;21.93;20.73;;;;;;;;;;5035535;28;20825;-83
2021/08/24 11:58:27;;;;;;;21.93;20.53;;;;;;;;;;5035438;28;20494;-82
2021/08/24 12:00:57;;;;;;;22.07;20.67;;;;;;;;;;5035532;28;20443;-83
2021/08/24 12:03:25;;;;;;;22.27;20.87;;;;;;;;;;5035568;28;20852;-83
2021/08/24 12:05:55;;;;;;;21.33;20.13;;;;;;;;;;5035328;28;20431;-83
2021/08/24 12:08:26;;;;;;;22.03;20.63;;;;;;;;;;5035051;28;20953;-83
2021/08/24 12:11:05;;;;;;;22.93;21.43;;;;;;;;;;5035477;28;20468;-84
2021/08/24 12:13:34;;;;;;;22.03;20.73;;;;;;;;;;5035346;28;20416;-83
2021/08/24 12:16:18;;;;;;;24.10;22.50;;;;;;;;;;5035387;28;20426;-83
2021/08/24 12:18:46;;;;;;;22.30;20.90;;;;;;;;;;5017796;28;20421;-84
2021/08/24 12:21:29;;;;;;;22.30;20.90;;;;;;;;;;5035206;28;20430;-83
2021/08/24 12:23:57;;;;;;;22.77;21.17;;;;;;;;;;5035430;28;20442;-85
2021/08/24 12:26:26;;;;;;;21.20;20.00;;;;;;;;;;5035079;28;20490;-85
2021/08/24 12:28:54;;;;;;;22.30;20.83;;;;;;;;;;5035185;28;20847;-85
2021/08/24 12:31:26;;;;;;;22.37;21.00;;;;;;;;;;5035359;28;20446;-86
2021/08/24 12:33:53;;;;;;;21.20;20.00;;;;;;;;;;5034775;28;20435;-82
2021/08/24 12:37:02;;;;;;;22.27;20.87;;;;;;;;;;5034931;28;20949;-83
2021/08/24 12:39:41;;;;;;;21.63;20.33;;;;;;;;;;5034836;28;20425;-83
2021/08/24 12:42:23;;;;;;;22.80;21.40;;;;;;;;;;5035018;28;20759;-85
2021/08/24 12:44:51;;;;;;;21.40;20.10;;;;;;;;;;5032760;28;20946;-86
2021/08/24 12:47:31;;;;;;;22.60;20.83;;;;;;;;;;5034707;28;20429;-85
2021/08/24 12:50:00;;;;;;;21.50;20.10;;;;;;;;;;5034677;28;20839;-85
2021/08/24 12:52:29;;;;;;;22.53;21.03;;;;;;;;;;5034929;28;20454;-85
2021/08/24 12:54:58;;;;;;;23.13;21.53;;;;;;;;;;5034559;28;20487;-85
2021/08/24 12:57:33;;;;;;;21.97;20.57;;;;;;;;;;5034542;28;20435;-85
2021/08/24 13:00:17;;;;;;;22.57;21.20;;;;;;;;;;5034502;28;20939;-85
2021/08/24 13:02:53;;;;;;;21.97;20.60;;;;;;;;;;5034846;28;20512;-85
2021/08/24 13:05:25;;;;;;;22.10;20.80;;;;;;;;;;5033975;28;20405;-87
2021/08/24 13:08:04;;;;;;;21.80;20.50;;;;;;;;;;5034076;28;20468;-85
2021/08/24 13:10:33;;;;;;;21.77;20.47;;;;;;;;;;5034166;28;20449;-85
2021/08/24 13:13:01;;;;;;;22.07;20.67;;;;;;;;;;5034047;28;20797;-84
2021/08/24 13:15:50;;;;;;;21.87;20.57;;;;;;;;;;5034352;28;20412;-84
2021/08/24 13:18:22;;;;;;;22.00;20.60;;;;;;;;;;5033930;28;20452;-84
2021/08/24 13:20:50;;;;;;;23.70;22.20;;;;;;;;;;5034230;28;20892;-84
2021/08/24 13:23:24;;;;;;;21.63;20.33;;;;;;;;;;5034295;28;20424;-84
2021/08/24 13:25:54;;;;;;;22.03;20.53;;;;;;;;;;5033806;28;20493;-84
2021/08/24 13:28:24;;;;;;;21.37;20.13;;;;;;;;;;5033979;28;20472;-83
2021/08/24 13:30:56;;;;;;;22.20;20.80;;;;;;;;;;5051197;28;20428;-90
2021/08/24 13:33:27;;;;;;;23.23;21.83;;;;;;;;;;5054065;28;20440;-84
2021/08/24 13:35:58;;;;;;;21.87;20.57;;;;;;;;;;5054148;28;20428;-84
2021/08/24 13:38:27;;;;;;;22.77;21.40;;;;;;;;;;5053586;28;20418;-84
2021/08/24 13:40:57;;;;;;;23.27;21.77;;;;;;;;;;5053567;28;20413;-84
2021/08/24 13:43:26;;;;;;;22.83;21.43;;;;;;;;;;5053672;28;20518;-84
2021/08/24 13:45:54;;;;;;;22.03;20.70;;;;;;;;;;5053474;28;20460;-85
2021/08/24 13:48:22;;;;;;;22.40;20.97;;;;;;;;;;5053837;28;20480;-84
2021/08/24 13:50:57;;;;;;;21.83;20.53;;;;;;;;;;5053390;28;20929;-84
2021/08/24 13:53:25;;;;;;;21.40;20.13;;;;;;;;;;5053576;28;20431;-84
2021/08/24 13:55:53;;;;;;;22.03;20.73;;;;;;;;;;5053877;28;20441;-84
2021/08/24 13:58:25;;;;;;;22.70;21.40;;;;;;;;;;5053625;28;20416;-84
2021/08/24 14:00:57;;;;;;;22.17;20.50;;;;;;;;;;5053807;28;20438;-85
2021/08/24 14:03:25;;;;;;;21.10;19.90;;;;;;;;;;5053444;28;20409;-84
2021/08/24 14:05:57;;;;;;;22.63;21.17;;;;;;;;;;5053470;28;20408;-84
2021/08/24 14:08:26;;;;;;;21.97;20.70;;;;;;;;;;5053398;28;20456;-84
2021/08/24 14:10:54;;;;;;;21.93;20.63;;;;;;;;;;5053604;28;20525;-84
2021/08/24 14:13:21;;;;;;;21.73;20.43;;;;;;;;;;5054093;28;20854;-84
2021/08/24 14:15:50;;;;;;;21.80;20.50;;;;;;;;;;5053771;28;20469;-84
2021/08/24 14:18:19;;;;;;;21.67;20.37;;;;;;;;;;5048083;28;20450;-84
2021/08/24 14:20:48;;;;;;;22.20;20.80;;;;;;;;;;5037584;28;20417;-87
2021/08/24 14:23:19;;;;;;;22.37;20.83;;;;;;;;;;5037302;28;20424;-84
2021/08/24 14:25:48;;;;;;;22.80;21.50;;;;;;;;;;5037200;28;20456;-83
2021/08/24 14:28:18;;;;;;;23.37;21.97;;;;;;;;;;5037605;28;20478;-86
2021/08/24 14:30:46;;;;;;;22.87;21.57;;;;;;;;;;5037649;28;20809;-85
2021/08/24 14:33:18;;;;;;;23.80;22.27;;;;;;;;;;5037655;28;20809;-85